Time;durP1;ratioP1;P1;durP2;ratioP2;P2;SDS_P1;SDS_P2;PMS_P1;PMS_P2;Temp;Humidity;BMP_temperature;BMP_pressure;BME280_temperature;BME280_humidity;BME280_pressure;Samples;Min_cycle;Max_cycle;Signal;HPM_P1;HPM_P2
2022/05/02 00:01:21;;;;;;;3.72;3.00;;;15.20;59.30;;;;;;10497342;28;20028;-60
2022/05/02 00:06:23;;;;;;;4.10;3.22;;;15.30;59.30;;;;;;10513166;28;20060;-60
2022/05/02 00:11:24;;;;;;;3.42;2.83;;;15.20;59.20;;;;;;10496682;28;20036;-62
2022/05/02 00:16:24;;;;;;;3.47;3.17;;;15.20;59.10;;;;;;10496792;28;20028;-61
2022/05/02 00:21:25;;;;;;;3.90;2.90;;;15.20;59.10;;;;;;10512020;28;20103;-61
2022/05/02 00:26:26;;;;;;;3.92;3.05;;;15.20;59.10;;;;;;10496831;28;20117;-61
2022/05/02 00:31:26;;;;;;;4.03;2.60;;;15.20;59.20;;;;;;10495836;28;20050;-61
2022/05/02 00:36:27;;;;;;;4.63;2.85;;;15.20;59.10;;;;;;10496366;28;20037;-61
2022/05/02 00:41:28;;;;;;;4.88;3.17;;;15.20;59.00;;;;;;10495901;28;20055;-60
2022/05/02 00:46:29;;;;;;;4.50;3.20;;;15.20;59.00;;;;;;10495563;28;20107;-61
2022/05/02 00:51:29;;;;;;;4.30;2.88;;;15.20;59.00;;;;;;10510874;28;20109;-61
2022/05/02 00:56:31;;;;;;;4.90;3.30;;;15.20;59.00;;;;;;10495143;28;20486;-61
2022/05/02 01:01:32;;;;;;;4.38;3.20;;;15.20;59.00;;;;;;10509970;28;20112;-60
2022/05/02 01:11:53;;;;;;;4.05;2.95;;;15.20;58.90;;;;;;10508325;28;20135;-60
2022/05/02 01:16:54;;;;;;;4.03;2.85;;;15.20;58.80;;;;;;10494700;28;20024;-60
2022/05/02 01:21:55;;;;;;;5.00;3.33;;;15.10;58.80;;;;;;10509948;28;20117;-60
2022/05/02 01:26:55;;;;;;;3.45;2.90;;;15.10;58.80;;;;;;10494388;28;20035;-61
2022/05/02 01:31:56;;;;;;;4.35;3.33;;;15.10;58.70;;;;;;10509605;28;20084;-61
2022/05/02 01:36:57;;;;;;;4.53;3.22;;;15.10;58.70;;;;;;10494160;28;20097;-61
2022/05/02 01:42:04;;;;;;;4.82;3.67;;;15.10;58.70;;;;;;10494285;28;20413;-61
2022/05/02 01:47:06;;;;;;;4.05;3.10;;;15.10;58.70;;;;;;10509541;28;20119;-61
2022/05/02 01:52:07;;;;;;;4.68;3.30;;;15.10;58.60;;;;;;10493756;28;20025;-62
2022/05/02 01:57:08;;;;;;;3.65;3.10;;;15.10;58.60;;;;;;10493935;28;20583;-58
2022/05/02 02:02:08;;;;;;;3.63;3.25;;;15.10;58.60;;;;;;10494210;28;20060;-59
2022/05/02 02:07:09;;;;;;;5.00;3.20;;;15.10;58.60;;;;;;10493720;28;20059;-61
2022/05/02 02:12:10;;;;;;;5.80;3.88;;;15.00;58.60;;;;;;10513686;28;20032;-60
2022/05/02 02:17:11;;;;;;;3.97;3.58;;;15.10;58.60;;;;;;10501494;28;20025;-60
2022/05/02 02:22:17;;;;;;;4.00;3.40;;;15.10;58.60;;;;;;10501223;28;20056;-62
2022/05/02 02:27:18;;;;;;;3.83;3.10;;;15.00;58.50;;;;;;10501597;28;20028;-61
2022/05/02 02:32:19;;;;;;;4.85;3.55;;;15.00;58.50;;;;;;10500586;28;20060;-59
2022/05/02 02:37:19;;;;;;;3.83;3.10;;;15.00;58.40;;;;;;10500660;28;20032;-61
2022/05/02 02:42:22;;;;;;;4.65;3.70;;;15.00;58.50;;;;;;10516236;28;20081;-61
2022/05/02 02:47:23;;;;;;;5.05;3.53;;;15.00;58.40;;;;;;10498964;28;20054;-62
2022/05/02 02:52:24;;;;;;;4.00;3.58;;;15.00;58.40;;;;;;10515729;28;20060;-60
2022/05/02 02:57:24;;;;;;;4.15;3.58;;;15.00;58.40;;;;;;10515761;28;20032;-61
2022/05/02 03:02:25;;;;;;;3.80;3.28;;;15.00;58.30;;;;;;10499761;28;20070;-61
2022/05/02 03:07:28;;;;;;;4.47;3.25;;;15.00;58.30;;;;;;10499584;28;20056;-59
2022/05/02 03:12:29;;;;;;;3.85;3.13;;;15.00;58.30;;;;;;10499845;28;20457;-61
2022/05/02 03:17:29;;;;;;;4.60;3.40;;;15.00;58.30;;;;;;10499364;28;20044;-61
2022/05/02 03:22:30;;;;;;;4.00;3.22;;;14.90;58.20;;;;;;10498142;28;20029;-61
2022/05/02 03:27:31;;;;;;;3.92;3.13;;;14.90;58.30;;;;;;10514722;28;20158;-61
2022/05/02 03:32:31;;;;;;;4.18;3.50;;;14.90;58.20;;;;;;10498157;28;20178;-60
2022/05/02 03:37:32;;;;;;;3.67;3.17;;;14.90;58.20;;;;;;10498409;28;20036;-57
2022/05/02 03:42:33;;;;;;;4.22;3.83;;;14.90;58.10;;;;;;10498195;28;20094;-60
2022/05/02 03:47:34;;;;;;;4.70;3.30;;;14.90;58.20;;;;;;10513514;28;20473;-59
2022/05/02 03:52:35;;;;;;;4.20;3.22;;;14.90;58.10;;;;;;10497756;28;20025;-60
2022/05/02 03:57:35;;;;;;;3.72;3.30;;;14.90;58.10;;;;;;10496848;28;20123;-60
2022/05/02 04:02:36;;;;;;;4.75;3.40;;;14.90;58.10;;;;;;10493669;28;20124;-60
2022/05/02 04:07:37;;;;;;;3.42;2.88;;;14.90;58.00;;;;;;10498107;28;20423;-61
2022/05/02 04:12:40;;;;;;;4.07;3.42;;;14.90;58.00;;;;;;10513828;28;20052;-61
2022/05/02 04:17:41;;;;;;;4.20;3.13;;;14.80;57.90;;;;;;10497987;28;20104;-60
2022/05/02 04:22:42;;;;;;;4.35;3.40;;;14.80;57.90;;;;;;10496299;28;20078;-61
2022/05/02 04:27:43;;;;;;;4.15;3.08;;;14.80;57.90;;;;;;10497556;28;20036;-61
2022/05/02 04:32:44;;;;;;;4.13;3.58;;;14.80;57.80;;;;;;10497052;28;20044;-60
2022/05/02 04:37:44;;;;;;;3.45;2.95;;;14.80;57.80;;;;;;10496360;28;20031;-61
2022/05/02 04:42:45;;;;;;;4.72;3.30;;;14.80;57.80;;;;;;10512582;28;20029;-61
2022/05/02 04:47:46;;;;;;;4.70;4.03;;;14.80;57.80;;;;;;10496757;28;20041;-60
2022/05/02 04:52:47;;;;;;;4.30;3.53;;;14.80;57.80;;;;;;10512367;28;20137;-61
2022/05/02 04:57:47;;;;;;;4.72;3.22;;;14.80;57.90;;;;;;10512011;28;20059;-60
2022/05/02 05:02:48;;;;;;;3.75;3.15;;;14.80;57.80;;;;;;10511723;28;20515;-60
2022/05/02 05:07:48;;;;;;;4.15;3.38;;;14.80;57.90;;;;;;10496138;28;20451;-61
2022/05/02 05:13:05;;;;;;;5.20;3.80;;;14.80;57.80;;;;;;10494766;28;20031;-61
2022/05/02 05:18:40;;;;;;;4.30;3.45;;;14.80;57.80;;;;;;10495744;28;20162;-61
2022/05/02 05:24:00;;;;;;;4.78;3.03;;;14.80;58.40;;;;;;10510077;28;20027;-60
2022/05/02 05:29:16;;;;;;;4.07;3.13;;;14.80;57.90;;;;;;10495796;28;20093;-61
2022/05/02 05:34:56;;;;;;;4.05;3.20;;;14.80;57.90;;;;;;10494863;28;20055;-60
2022/05/02 05:40:13;;;;;;;;;;;14.80;57.90;;;;;;10511248;28;20032;-61
2022/05/02 05:45:57;;;;;;;4.18;3.53;;;14.80;57.80;;;;;;10496278;28;20298;-60
2022/05/02 05:51:26;;;;;;;3.60;3.17;;;14.80;58.00;;;;;;10515968;28;20048;-61
2022/05/02 05:57:40;;;;;;;3.35;2.80;;;14.70;58.00;;;;;;10503660;28;20369;-60
2022/05/02 06:03:15;;;;;;;4.32;3.47;;;14.80;58.10;;;;;;10462083;28;20389;-61
2022/05/02 06:08:20;;;;;;;3.63;2.92;;;14.80;58.20;;;;;;10502973;28;20033;-61
2022/05/02 06:13:25;;;;;;;4.20;3.40;;;14.80;58.30;;;;;;10518300;28;20025;-61
2022/05/02 06:18:30;;;;;;;3.83;3.15;;;14.80;58.30;;;;;;10518120;28;20074;-61
2022/05/02 06:23:46;;;;;;;3.88;3.47;;;14.70;58.30;;;;;;10517583;28;20048;-61
2022/05/02 06:28:50;;;;;;;4.57;3.70;;;14.70;58.30;;;;;;10501839;28;20036;-61
2022/05/02 06:33:51;;;;;;;3.60;3.30;;;14.70;58.40;;;;;;10502010;28;20051;-61
2022/05/02 06:39:14;;;;;;;4.47;3.47;;;14.70;58.40;;;;;;10501910;28;20025;-60
2022/05/02 06:44:42;;;;;;;3.60;3.03;;;14.70;58.40;;;;;;10501574;28;20036;-60
2022/05/02 06:49:48;;;;;;;4.63;3.88;;;14.70;58.50;;;;;;10501537;28;20024;-60
2022/05/02 06:55:26;;;;;;;4.25;3.30;;;14.70;58.50;;;;;;10501054;28;20033;-62
2022/05/02 07:00:34;;;;;;;4.32;3.55;;;14.70;58.60;;;;;;10499809;28;20495;-61
2022/05/02 07:06:13;;;;;;;6.15;3.45;;;14.70;58.70;;;;;;10500924;28;20385;-61
2022/05/02 07:11:20;;;;;;;4.55;3.65;;;14.70;58.70;;;;;;10513376;28;20036;-60
2022/05/02 07:16:25;;;;;;;4.40;3.95;;;14.70;58.70;;;;;;10515954;28;20035;-61
2022/05/02 07:21:29;;;;;;;3.70;3.05;;;14.70;58.70;;;;;;10516275;28;20035;-61
2022/05/02 07:26:33;;;;;;;4.75;3.83;;;14.70;59.10;;;;;;10500104;28;20364;-61
2022/05/02 07:31:35;;;;;;;4.68;3.67;;;14.70;59.30;;;;;;10515110;28;20813;-61
2022/05/02 07:36:37;;;;;;;4.28;3.20;;;14.70;59.40;;;;;;10515836;28;20533;-60
2022/05/02 07:41:39;;;;;;;4.20;3.28;;;14.70;59.40;;;;;;10515077;28;20036;-59
2022/05/02 07:46:43;;;;;;;4.07;3.33;;;14.80;59.50;;;;;;10514557;28;20094;-60
2022/05/02 07:51:52;;;;;;;4.03;2.88;;;14.80;59.50;;;;;;10514443;28;20166;-60
2022/05/02 07:57:02;;;;;;;3.70;3.10;;;14.90;59.50;;;;;;10514645;28;20492;-59
2022/05/02 08:02:04;;;;;;;4.30;3.65;;;14.90;59.40;;;;;;10498960;28;20028;-59
2022/05/02 08:07:21;;;;;;;3.78;3.15;;;14.90;59.30;;;;;;10498244;28;20035;-61
2022/05/02 08:12:54;;;;;;;5.05;3.35;;;14.90;59.40;;;;;;10513666;28;20064;-59
2022/05/02 08:18:23;;;;;;;5.47;3.53;;;14.90;59.40;;;;;;10497667;28;20036;-60
2022/05/02 08:29:48;;;;;;;5.60;3.25;;;15.00;59.40;;;;;;10497686;28;20423;-60
2022/05/02 08:35:09;;;;;;;3.72;2.88;;;15.00;59.40;;;;;;10510389;28;20492;-61
2022/05/02 08:40:23;;;;;;;3.78;2.70;;;15.00;59.40;;;;;;10497102;28;20029;-61
2022/05/02 08:45:46;;;;;;;3.85;2.88;;;15.00;59.50;;;;;;10496664;28;20039;-61
2022/05/02 08:51:31;;;;;;;4.90;3.45;;;15.10;59.60;;;;;;10496902;28;20086;-60
2022/05/02 08:57:00;;;;;;;4.32;2.80;;;15.10;59.50;;;;;;10511208;28;20025;-60
2022/05/02 09:02:32;;;;;;;3.92;3.45;;;15.10;59.50;;;;;;10512038;28;20020;-60
2022/05/02 09:08:22;;;;;;;5.40;3.28;;;15.10;59.50;;;;;;10496275;28;20400;-60
2022/05/02 09:13:48;;;;;;;3.33;2.90;;;15.20;59.60;;;;;;10496095;28;20119;-61
2022/05/02 09:19:01;;;;;;;3.08;2.75;;;15.20;59.70;;;;;;10511380;28;20039;-60
2022/05/02 09:24:34;;;;;;;4.43;3.28;;;15.20;59.80;;;;;;10494925;28;20033;-60
2022/05/02 09:29:59;;;;;;;3.60;3.08;;;15.20;59.80;;;;;;10492044;28;20484;-60
2022/05/02 09:35:04;;;;;;;3.20;2.90;;;15.20;59.90;;;;;;10510794;28;20394;-60
2022/05/02 09:40:12;;;;;;;3.28;2.95;;;15.20;60.10;;;;;;10495542;28;20103;-60
2022/05/02 09:51:32;;;;;;;3.88;3.00;;;15.20;60.10;;;;;;10495294;28;20492;-61
2022/05/02 09:56:46;;;;;;;3.55;2.88;;;15.30;60.00;;;;;;10473702;28;20043;-61
2022/05/02 10:01:56;;;;;;;3.80;3.25;;;15.30;60.00;;;;;;10495317;28;20397;-60
2022/05/02 10:07:18;;;;;;;;;;;15.30;60.00;;;;;;10495111;28;20033;-60
2022/05/02 10:12:47;;;;;;;3.83;2.75;;;15.30;59.90;;;;;;10494866;28;19942;-60
2022/05/02 10:18:07;;;;;;;4.55;2.75;;;15.40;60.00;;;;;;10510360;28;20059;-60
2022/05/02 10:24:06;;;;;;;3.38;2.40;;;15.40;59.90;;;;;;10509747;28;20059;-60
2022/05/02 10:29:42;;;;;;;3.70;2.78;;;15.40;59.80;;;;;;10494928;28;20020;-60
2022/05/02 10:34:47;;;;;;;4.20;3.50;;;15.40;59.90;;;;;;10500520;28;20219;-60
2022/05/02 10:40:00;;;;;;;4.28;3.05;;;15.50;59.80;;;;;;10502100;28;20021;-60
2022/05/02 10:45:08;;;;;;;2.85;2.35;;;15.50;59.80;;;;;;10517175;28;20103;-60
2022/05/02 10:50:18;;;;;;;3.88;2.60;;;15.50;59.80;;;;;;10501839;28;20504;-61
2022/05/02 10:55:36;;;;;;;3.80;2.97;;;15.50;59.60;;;;;;10501175;28;20033;-60
2022/05/02 11:01:17;;;;;;;2.80;2.40;;;15.60;59.70;;;;;;10501243;28;20392;-61
2022/05/02 11:07:00;;;;;;;3.72;2.78;;;15.60;59.60;;;;;;10515827;28;20388;-60
2022/05/02 11:12:03;;;;;;;3.15;2.50;;;15.60;59.50;;;;;;10500915;28;20366;-61
2022/05/02 11:17:40;;;;;;;3.22;2.42;;;15.70;60.10;;;;;;10515826;28;20032;-60
2022/05/02 11:22:42;;;;;;;3.20;2.78;;;15.70;59.50;;;;;;10515674;28;20389;-60
2022/05/02 11:28:19;;;;;;;3.50;2.65;;;15.70;60.10;;;;;;10515808;28;20373;-62
2022/05/02 11:34:00;;;;;;;2.80;2.42;;;15.80;59.60;;;;;;10499684;28;20040;-60
2022/05/02 11:39:08;;;;;;;3.25;2.47;;;15.80;59.60;;;;;;10512805;28;20020;-61
2022/05/02 11:44:12;;;;;;;3.17;2.88;;;15.80;59.50;;;;;;10514675;28;20030;-61
2022/05/02 11:50:13;;;;;;;3.38;2.83;;;15.80;59.60;;;;;;10499298;28;20029;-61
2022/05/02 11:55:15;;;;;;;3.58;2.50;;;15.90;59.50;;;;;;10498703;28;20123;-61
2022/05/02 12:00:17;;;;;;;3.03;2.67;;;15.90;59.40;;;;;;10514254;28;20021;-60
2022/05/02 12:05:17;;;;;;;4.15;2.70;;;15.90;59.50;;;;;;10498483;28;20029;-59
2022/05/02 12:10:20;;;;;;;2.97;2.53;;;16.00;59.60;;;;;;10498484;28;20036;-59
2022/05/02 12:15:20;;;;;;;3.45;2.50;;;16.00;59.50;;;;;;10497965;28;20031;-60
2022/05/02 12:20:36;;;;;;;3.75;2.50;;;16.00;59.50;;;;;;10498449;28;20107;-59
2022/05/02 12:25:49;;;;;;;2.97;2.40;;;16.10;59.40;;;;;;10497593;28;20354;-60
2022/05/02 12:30:53;;;;;;;2.72;2.10;;;16.20;59.40;;;;;;10497978;28;20039;-61
2022/05/02 12:35:54;;;;;;;3.28;2.58;;;16.20;59.40;;;;;;10512871;28;20032;-60
2022/05/02 12:41:01;;;;;;;2.42;2.10;;;16.20;59.30;;;;;;10512899;28;20036;-61
2022/05/02 12:46:08;;;;;;;3.63;2.50;;;16.20;59.30;;;;;;10496908;28;20028;-61
2022/05/02 12:51:16;;;;;;;2.85;2.38;;;16.10;59.50;;;;;;10496702;28;20081;-61
2022/05/02 12:56:17;;;;;;;3.30;2.30;;;16.00;59.80;;;;;;10495752;28;20112;-60
2022/05/02 13:01:24;;;;;;;3.45;2.65;;;16.10;59.70;;;;;;10494878;28;20036;-60
2022/05/02 13:06:27;;;;;;;2.97;2.38;;;16.20;59.50;;;;;;10496289;28;20070;-60
2022/05/02 13:11:36;;;;;;;2.83;2.33;;;16.20;59.40;;;;;;10495847;28;20032;-57
2022/05/02 13:16:45;;;;;;;3.53;2.40;;;16.30;59.40;;;;;;10511299;28;20040;-60
2022/05/02 13:21:56;;;;;;;3.20;2.50;;;16.30;59.20;;;;;;10495596;28;20028;-59
2022/05/02 13:27:32;;;;;;;3.75;2.75;;;16.40;59.20;;;;;;10511390;28;20043;-62
2022/05/02 13:32:42;;;;;;;3.15;2.60;;;16.40;59.00;;;;;;10510687;28;20036;-60
2022/05/02 13:38:04;;;;;;;3.30;2.42;;;16.30;59.10;;;;;;10510603;28;20461;-60
2022/05/02 13:43:15;;;;;;;3.63;2.17;;;16.20;59.40;;;;;;10511291;28;20033;-62
2022/05/02 13:48:32;;;;;;;3.17;2.58;;;16.20;59.60;;;;;;10495204;28;20029;-62
2022/05/02 13:53:55;;;;;;;7.93;3.22;;;16.10;59.70;;;;;;10494993;28;20115;-61
2022/05/02 13:59:27;;;;;;;3.42;2.42;;;16.10;59.80;;;;;;10495232;28;20035;-61
2022/05/02 14:09:48;;;;;;;3.00;2.53;;;16.00;59.80;;;;;;10516996;28;20043;-62
2022/05/02 14:15:03;;;;;;;2.63;2.28;;;16.10;59.80;;;;;;10502703;28;20063;-61
2022/05/02 14:20:25;;;;;;;3.92;2.60;;;16.10;60.00;;;;;;10502890;28;20457;-61
2022/05/02 14:25:36;;;;;;;2.80;2.20;;;16.10;59.80;;;;;;10502156;28;20031;-61
2022/05/02 14:30:45;;;;;;;3.55;2.60;;;16.10;60.00;;;;;;10502229;28;20035;-61
2022/05/02 14:35:46;;;;;;;3.47;2.53;;;16.00;60.10;;;;;;10501966;28;20354;-59
2022/05/02 14:40:47;;;;;;;2.40;2.15;;;16.00;60.10;;;;;;10517734;28;20052;-61
2022/05/02 14:45:50;;;;;;;3.47;2.20;;;15.90;60.10;;;;;;10517638;28;20097;-61
2022/05/02 14:50:55;;;;;;;2.67;2.00;;;16.00;60.20;;;;;;10501452;28;20032;-62
2022/05/02 14:55:58;;;;;;;3.25;2.33;;;15.90;60.10;;;;;;10501290;28;20103;-62
2022/05/02 15:01:03;;;;;;;3.33;2.30;;;15.90;60.10;;;;;;10501068;28;20024;-59
2022/05/02 15:06:07;;;;;;;2.90;2.40;;;15.90;60.20;;;;;;10516030;28;20029;-61
2022/05/02 15:11:44;;;;;;;2.65;2.05;;;15.90;60.10;;;;;;10500630;28;20400;-62
2022/05/02 15:17:21;;;;;;;2.42;2.03;;;16.00;60.10;;;;;;10500749;28;20024;-62
2022/05/02 15:22:31;;;;;;;4.15;2.30;;;16.00;60.10;;;;;;10515854;28;20044;-61
2022/05/02 15:38:53;;;;;;;2.75;2.40;;;16.00;60.00;;;;;;10500499;28;20427;-61
2022/05/02 15:43:54;;;;;;;2.95;2.28;;;16.00;60.00;;;;;;10499658;28;20419;-61
2022/05/02 15:49:07;;;;;;;2.75;2.17;;;16.00;60.00;;;;;;10498010;28;20066;-62
2022/05/02 15:54:21;;;;;;;3.25;2.40;;;16.00;60.00;;;;;;10514735;28;20035;-60
2022/05/02 15:59:29;;;;;;;2.88;2.20;;;16.00;60.00;;;;;;10499150;28;20037;-61
2022/05/02 16:04:34;;;;;;;3.17;2.33;;;16.00;60.00;;;;;;10498443;28;20032;-60
2022/05/02 16:15:15;;;;;;;3.28;2.38;;;16.00;60.10;;;;;;10509019;28;20032;-62
2022/05/02 16:20:17;;;;;;;3.47;2.60;;;16.00;60.00;;;;;;10498195;28;20020;-60
2022/05/02 16:25:29;;;;;;;4.72;2.60;;;16.00;60.00;;;;;;10498294;28;20503;-61
2022/05/02 16:30:31;;;;;;;2.30;1.92;;;16.00;60.00;;;;;;10497773;28;20029;-59
2022/05/02 16:35:32;;;;;;;2.42;2.13;;;16.00;60.00;;;;;;10497231;28;20040;-60
2022/05/02 16:40:36;;;;;;;4.10;2.83;;;16.00;60.00;;;;;;10512860;28;20051;-61
2022/05/02 16:45:36;;;;;;;3.45;2.63;;;16.00;60.00;;;;;;10497063;28;20029;-62
2022/05/02 16:50:41;;;;;;;3.03;2.30;;;16.00;60.00;;;;;;10512497;28;20508;-61
2022/05/02 16:55:42;;;;;;;3.22;2.55;;;16.00;60.00;;;;;;10496569;28;20033;-62
2022/05/02 17:00:55;;;;;;;3.30;2.65;;;16.00;60.00;;;;;;10512070;28;20384;-61
2022/05/02 17:06:06;;;;;;;3.38;2.28;;;16.00;60.00;;;;;;10496389;28;20035;-60
2022/05/02 17:11:07;;;;;;;2.70;2.20;;;16.00;60.00;;;;;;10496076;28;20029;-62
2022/05/02 17:16:22;;;;;;;2.20;1.88;;;16.00;60.00;;;;;;10495986;28;20035;-61
2022/05/02 17:21:23;;;;;;;2.85;2.10;;;16.00;60.00;;;;;;10495722;28;20031;-60
2022/05/02 17:26:24;;;;;;;4.30;2.35;;;16.00;60.00;;;;;;10495594;28;20039;-61
2022/05/02 17:31:26;;;;;;;3.22;2.53;;;16.00;60.00;;;;;;10510915;28;20110;-61
2022/05/02 17:36:27;;;;;;;3.78;2.85;;;16.00;60.10;;;;;;10511142;28;20031;-62
2022/05/02 17:41:28;;;;;;;2.85;2.20;;;16.00;60.10;;;;;;10495439;28;20362;-60
2022/05/02 17:46:37;;;;;;;4.18;2.53;;;16.00;60.20;;;;;;10495140;28;20106;-62
2022/05/02 17:51:41;;;;;;;2.80;2.38;;;16.00;60.10;;;;;;10495178;28;20025;-60
2022/05/02 17:56:42;;;;;;;3.50;2.47;;;15.90;60.20;;;;;;10495275;28;20036;-60
2022/05/02 18:01:42;;;;;;;3.30;2.30;;;15.90;60.20;;;;;;10510427;28;20038;-61
2022/05/02 18:06:43;;;;;;;1.80;1.70;;;15.90;60.20;;;;;;10495180;28;20450;-58
2022/05/02 18:17:31;;;;;;;2.78;2.13;;;15.90;60.30;;;;;;10508497;28;20119;-60
2022/05/02 18:22:35;;;;;;;2.78;2.35;;;15.90;60.30;;;;;;10508795;28;20094;-61
2022/05/02 18:27:47;;;;;;;3.03;2.30;;;15.90;60.30;;;;;;10494522;28;20477;-60
2022/05/02 18:32:50;;;;;;;2.88;2.30;;;15.90;60.30;;;;;;10494041;28;20451;-60
2022/05/02 18:38:04;;;;;;;2.70;2.10;;;15.90;60.20;;;;;;10509376;28;20078;-60
2022/05/02 18:43:12;;;;;;;3.40;2.20;;;15.80;60.20;;;;;;10510348;28;20384;-60
2022/05/02 18:53:34;;;;;;;2.67;2.30;;;15.90;60.10;;;;;;10495381;28;20037;-61
2022/05/02 18:58:36;;;;;;;2.90;2.28;;;15.90;60.10;;;;;;10516791;28;20443;-61
2022/05/02 19:03:48;;;;;;;2.17;1.98;;;15.90;60.10;;;;;;10516986;28;20033;-62
2022/05/02 19:08:54;;;;;;;3.63;2.25;;;15.90;60.10;;;;;;10515448;28;20047;-61
2022/05/02 19:13:57;;;;;;;2.80;2.40;;;15.90;60.00;;;;;;10516135;28;20038;-58
2022/05/02 19:18:58;;;;;;;2.63;2.00;;;15.90;60.00;;;;;;10500791;28;20024;-60
2022/05/02 19:24:30;;;;;;;2.97;2.10;;;15.80;59.80;;;;;;10500226;28;20497;-61
2022/05/02 19:29:34;;;;;;;2.40;1.70;;;15.90;59.90;;;;;;10515864;28;20377;-61
2022/05/02 19:40:01;;;;;;;4.15;1.60;;;15.90;59.80;;;;;;10513913;28;20501;-60
2022/05/02 19:45:05;;;;;;;3.25;2.10;;;15.80;59.80;;;;;;10514321;28;20573;-61
2022/05/02 19:50:12;;;;;;;2.05;1.85;;;15.90;59.80;;;;;;10513763;28;20396;-58
2022/05/02 19:55:18;;;;;;;3.00;2.08;;;15.80;59.80;;;;;;10497771;28;20060;-59
2022/05/02 20:00:19;;;;;;;2.53;2.10;;;15.90;59.80;;;;;;10497094;28;20068;-60
2022/05/02 20:05:19;;;;;;;2.00;1.70;;;15.90;59.70;;;;;;10497447;28;20131;-60
2022/05/02 20:10:21;;;;;;;2.45;1.80;;;15.90;59.70;;;;;;10498247;28;20505;-61
2022/05/02 20:15:22;;;;;;;2.35;1.75;;;15.90;59.70;;;;;;10497403;28;20041;-61
2022/05/02 20:20:22;;;;;;;2.33;2.10;;;15.80;59.60;;;;;;10496812;28;20062;-61
2022/05/02 20:25:23;;;;;;;2.80;2.33;;;15.90;59.80;;;;;;10496539;28;20032;-60
2022/05/02 20:30:24;;;;;;;2.35;2.05;;;15.80;59.70;;;;;;10496457;28;20024;-60
2022/05/02 20:40:56;;;;;;;2.33;2.13;;;15.90;60.30;;;;;;10496628;28;20044;-61
2022/05/02 20:45:59;;;;;;;3.00;2.13;;;15.80;59.70;;;;;;10511505;28;20131;-60
2022/05/02 20:51:02;;;;;;;2.08;1.67;;;15.90;59.70;;;;;;10495671;28;20029;-60
2022/05/02 20:56:05;;;;;;;1.67;1.42;;;15.90;59.70;;;;;;10495425;28;20027;-60
2022/05/02 21:01:06;;;;;;;2.88;1.63;;;15.90;59.60;;;;;;10496139;28;20122;-61
2022/05/02 21:06:06;;;;;;;2.60;1.92;;;15.90;59.60;;;;;;10495342;28;20099;-60
2022/05/02 21:12:07;;;;;;;2.67;2.08;;;15.90;59.40;;;;;;10494971;28;20067;-61
2022/05/02 21:17:25;;;;;;;2.23;1.57;;;15.90;59.60;;;;;;10485572;28;20506;-61
2022/05/02 21:22:44;;;;;;;1.98;1.50;;;15.90;59.60;;;;;;10494748;28;20279;-61
2022/05/02 21:28:29;;;;;;;2.20;1.83;;;15.90;59.30;;;;;;10495214;28;20081;-61
2022/05/02 21:33:40;;;;;;;2.17;1.85;;;15.90;59.50;;;;;;10494096;28;20515;-59
2022/05/02 21:38:41;;;;;;;2.63;1.92;;;15.90;59.40;;;;;;10509554;28;20022;-60
2022/05/02 21:43:42;;;;;;;2.67;2.03;;;15.80;59.30;;;;;;10509982;28;20110;-61
2022/05/02 21:48:43;;;;;;;2.47;1.77;;;15.90;59.20;;;;;;10494167;28;20116;-61
2022/05/02 21:53:43;;;;;;;2.35;1.63;;;15.90;59.20;;;;;;10493902;28;20035;-60
2022/05/02 21:58:44;;;;;;;2.03;1.45;;;15.90;59.30;;;;;;10509681;28;20139;-61
2022/05/02 22:03:45;;;;;;;2.95;1.90;;;15.90;59.30;;;;;;10494198;28;20063;-62
2022/05/02 22:08:45;;;;;;;2.28;1.80;;;15.80;59.20;;;;;;10493988;28;20515;-60
2022/05/02 22:13:47;;;;;;;3.58;1.67;;;15.80;59.20;;;;;;10509123;28;20504;-61
2022/05/02 22:18:48;;;;;;;2.17;1.85;;;15.80;59.10;;;;;;10509099;28;20078;-60
2022/05/02 22:23:49;;;;;;;2.67;2.13;;;15.80;59.20;;;;;;10493887;28;20554;-60
2022/05/02 22:28:49;;;;;;;2.22;1.83;;;15.80;59.00;;;;;;10497128;28;20067;-61
2022/05/02 22:33:50;;;;;;;2.10;1.88;;;15.80;59.10;;;;;;10500943;28;20130;-62
2022/05/02 22:38:51;;;;;;;2.35;1.90;;;15.80;59.10;;;;;;10516420;28;20037;-61
2022/05/02 22:43:52;;;;;;;2.28;1.80;;;15.80;59.00;;;;;;10500796;28;20055;-61
2022/05/02 22:48:52;;;;;;;2.50;1.75;;;15.80;59.00;;;;;;10500668;28;20093;-61
2022/05/02 22:53:53;;;;;;;2.20;1.58;;;15.80;58.90;;;;;;10500377;28;20029;-60
2022/05/02 22:58:57;;;;;;;1.98;1.42;;;15.80;58.90;;;;;;10500370;28;20048;-61
2022/05/02 23:04:22;;;;;;;2.50;1.63;;;15.80;58.90;;;;;;10515511;28;20032;-61
2022/05/02 23:09:24;;;;;;;2.50;1.65;;;15.80;58.90;;;;;;10514762;28;20031;-60
2022/05/02 23:14:26;;;;;;;1.88;1.58;;;15.80;58.90;;;;;;10515655;28;20468;-61
2022/05/02 23:19:28;;;;;;;2.28;1.67;;;15.80;58.90;;;;;;10515700;28;20031;-62
2022/05/02 23:24:30;;;;;;;2.17;1.27;;;15.80;58.90;;;;;;10499153;28;20071;-61
2022/05/02 23:29:31;;;;;;;1.65;1.35;;;15.80;58.80;;;;;;10514573;28;20370;-60
2022/05/02 23:34:53;;;;;;;1.95;1.63;;;15.80;58.90;;;;;;10498672;28;20123;-60
2022/05/02 23:40:01;;;;;;;2.60;1.30;;;15.70;58.80;;;;;;10498311;28;20055;-62
2022/05/02 23:45:04;;;;;;;2.58;1.80;;;15.80;58.80;;;;;;10513845;28;20150;-61
2022/05/02 23:50:07;;;;;;;1.83;1.35;;;15.80;58.80;;;;;;10514037;28;20400;-61
2022/05/02 23:56:07;;;;;;;1.52;1.30;;;15.70;58.80;;;;;;10513515;28;20041;-62
